Time;durP1;ratioP1;P1;durP2;ratioP2;P2;SDS_P1;SDS_P2;PMS_P1;PMS_P2;Temp;Humidity;BMP_temperature;BMP_pressure;BME280_temperature;BME280_humidity;BME280_pressure;Samples;Min_cycle;Max_cycle;Signal;HPM_P1;HPM_P2
2022/10/08 00:01:18;;;;;;;5.67;4.07;;;15.10;99.90;;;15.57;nan;100852.69;5011156;28;20634;-67
2022/10/08 00:03:50;;;;;;;8.13;4.40;;;15.10;99.90;;;15.57;nan;100862.38;5010584;28;20625;-66
2022/10/08 00:06:19;;;;;;;7.53;4.10;;;15.10;99.90;;;15.53;nan;100859.19;5009835;28;20632;-65
2022/10/08 00:08:57;;;;;;;6.23;3.90;;;15.20;99.90;;;15.57;nan;100865.03;5010004;28;20674;-66
2022/10/08 00:11:28;;;;;;;5.93;4.40;;;15.20;99.90;;;15.63;nan;100859.22;4994353;28;20628;-65
2022/10/08 00:13:56;;;;;;;10.73;4.40;;;15.20;99.90;;;15.62;nan;100861.00;5010866;28;20673;-65
2022/10/08 00:16:51;;;;;;;7.03;4.67;;;15.20;99.90;;;15.69;nan;100863.91;4988125;28;20645;-65
2022/10/08 00:19:18;;;;;;;8.70;4.00;;;15.20;99.90;;;15.65;nan;100862.53;5009241;28;20674;-65
2022/10/08 00:21:46;;;;;;;4.40;4.00;;;15.30;99.90;;;15.72;nan;100866.25;5010776;28;20625;-65
2022/10/08 00:24:16;;;;;;;13.20;5.10;;;15.30;99.90;;;15.68;nan;100868.34;5011875;28;20618;-66
2022/10/08 00:26:44;;;;;;;4.50;3.87;;;15.30;99.90;;;15.66;nan;100854.50;5002326;28;20641;-66
2022/10/08 00:29:14;;;;;;;8.23;4.50;;;15.30;99.90;;;15.70;nan;100860.28;5009459;28;20661;-66
2022/10/08 00:31:45;;;;;;;5.97;4.30;;;15.20;99.90;;;15.62;nan;100866.25;4994093;28;20687;-66
2022/10/08 00:34:24;;;;;;;5.57;4.50;;;15.20;99.90;;;15.68;nan;100868.34;5009010;28;21216;-67
2022/10/08 00:36:54;;;;;;;9.63;5.07;;;15.30;99.90;;;15.69;nan;100863.91;5010305;28;20993;-66
2022/10/08 00:39:23;;;;;;;6.13;4.60;;;15.30;99.90;;;15.70;nan;100868.19;5009436;28;20658;-66
2022/10/08 00:41:54;;;;;;;5.27;4.37;;;15.30;99.90;;;15.70;nan;100868.19;5011494;28;20621;-65
2022/10/08 00:44:49;;;;;;;7.03;4.37;;;15.30;99.90;;;15.76;nan;100875.56;5010621;28;20622;-65
2022/10/08 00:47:28;;;;;;;8.63;4.27;;;15.30;99.90;;;15.75;nan;100873.88;5005761;28;21044;-65
2022/10/08 00:50:08;;;;;;;5.60;4.60;;;15.30;99.90;;;15.69;nan;100882.31;5009626;28;20660;-66
2022/10/08 00:52:51;;;;;;;7.13;4.50;;;15.30;99.90;;;15.67;nan;100876.38;4976353;28;20683;-66
2022/10/08 00:55:21;;;;;;;4.33;3.70;;;15.30;99.90;;;15.68;nan;100870.97;5010059;28;20641;-66
2022/10/08 00:57:50;;;;;;;5.33;4.47;;;15.30;99.90;;;15.65;nan;100868.63;4992965;28;20635;-65
2022/10/08 01:00:22;;;;;;;9.07;4.40;;;15.20;99.90;;;15.65;nan;100860.75;5010609;28;20661;-65
2022/10/08 01:02:50;;;;;;;6.43;4.17;;;15.20;99.90;;;15.65;nan;100863.38;5004890;28;20646;-66
2022/10/08 01:05:38;;;;;;;6.17;3.73;;;15.20;99.90;;;15.63;nan;100861.84;4994201;28;20634;-66
2022/10/08 01:08:42;;;;;;;7.07;3.87;;;15.20;99.90;;;15.62;nan;100866.25;4994811;28;20661;-66
2022/10/08 01:11:39;;;;;;;6.57;4.10;;;15.30;99.90;;;15.59;nan;100866.53;5012719;28;20625;-66
2022/10/08 01:14:52;;;;;;;7.20;4.03;;;15.20;99.90;;;15.60;nan;100856.84;5013494;28;20617;-65
2022/10/08 01:18:16;;;;;;;8.60;5.00;;;15.20;99.90;;;15.58;nan;100856.13;5013147;28;20645;-66
2022/10/08 01:21:10;;;;;;;8.37;3.60;;;15.20;99.90;;;15.55;nan;100854.59;5012463;28;21048;-65
2022/10/08 01:24:15;;;;;;;5.43;3.60;;;15.20;99.90;;;15.43;nan;100860.97;5012569;28;21004;-65
2022/10/08 01:26:53;;;;;;;4.90;4.00;;;15.10;99.90;;;15.35;nan;100858.16;4979185;28;20633;-65
2022/10/08 01:29:40;;;;;;;5.17;4.20;;;15.10;99.90;;;15.42;nan;100860.09;5013400;28;21266;-65
2022/10/08 01:32:20;;;;;;;6.30;4.30;;;15.10;99.90;;;15.44;nan;100862.63;4995155;28;20641;-67
2022/10/08 01:34:58;;;;;;;4.43;3.93;;;15.10;99.90;;;15.44;nan;100862.63;4975835;28;20634;-66
2022/10/08 01:37:33;;;;;;;5.40;4.00;;;15.10;99.90;;;15.37;nan;100861.47;5012860;28;20641;-64
2022/10/08 01:40:04;;;;;;;5.83;4.00;;;15.00;99.90;;;15.34;nan;100857.31;4995572;28;21204;-66
2022/10/08 01:42:34;;;;;;;5.83;3.33;;;15.00;99.90;;;15.32;nan;100856.63;4980853;28;20610;-66
2022/10/08 01:45:08;;;;;;;8.07;4.07;;;15.00;99.90;;;15.45;nan;100859.88;5014398;28;20617;-66
2022/10/08 01:47:38;;;;;;;7.03;4.30;;;15.10;99.90;;;15.39;nan;100865.66;4986445;28;21048;-66
2022/10/08 01:50:46;;;;;;;6.77;4.30;;;15.10;99.90;;;15.38;nan;100866.59;4995103;28;20657;-66
2022/10/08 01:53:16;;;;;;;4.27;3.23;;;15.10;99.90;;;15.42;nan;100872.41;4974792;28;20741;-67
2022/10/08 01:55:48;;;;;;;6.70;3.87;;;15.10;99.90;;;15.39;nan;100867.44;5013100;28;20625;-67
2022/10/08 01:58:27;;;;;;;5.17;3.60;;;15.10;99.90;;;15.38;nan;100865.75;4994961;28;20633;-65
2022/10/08 02:01:04;;;;;;;7.90;4.13;;;15.10;99.90;;;15.41;nan;100871.59;5011496;28;20683;-64
2022/10/08 02:03:31;;;;;;;4.30;3.90;;;15.00;99.90;;;15.36;nan;100859.81;4993438;28;20652;-67
2022/10/08 02:06:01;;;;;;;7.63;4.30;;;15.10;99.90;;;15.30;nan;100858.56;5011538;28;20650;-67
2022/10/08 02:08:28;;;;;;;5.80;3.90;;;15.00;99.90;;;15.28;nan;100867.53;4993223;28;20677;-67
2022/10/08 02:10:55;;;;;;;4.67;3.80;;;15.00;99.90;;;15.22;nan;100863.66;5003315;28;20703;-66
2022/10/08 02:13:23;;;;;;;4.67;4.03;;;14.90;99.90;;;15.26;nan;100869.47;5011798;28;20614;-67
2022/10/08 02:16:10;;;;;;;5.13;3.97;;;14.90;99.90;;;15.35;nan;100863.41;5012840;28;21205;-65
2022/10/08 02:18:48;;;;;;;6.03;3.87;;;14.90;99.90;;;15.23;nan;100867.09;4993547;28;21456;-66
2022/10/08 02:21:23;;;;;;;5.50;3.90;;;14.90;99.90;;;15.12;nan;100860.16;5012122;28;20629;-66
2022/10/08 02:24:16;;;;;;;5.37;3.60;;;14.90;99.90;;;15.21;nan;100867.25;4996317;28;20663;-65
2022/10/08 02:26:56;;;;;;;4.10;3.30;;;14.90;99.90;;;15.22;nan;100870.72;4994926;28;20642;-67
2022/10/08 02:30:15;;;;;;;6.13;4.13;;;14.90;99.90;;;15.16;nan;100868.63;5012092;28;20665;-67
2022/10/08 02:33:15;;;;;;;5.13;3.00;;;14.90;99.90;;;15.15;nan;100870.41;4954460;28;20712;-66
2022/10/08 02:35:49;;;;;;;3.87;3.10;;;14.90;99.90;;;15.13;nan;100876.75;4978194;28;20622;-67
2022/10/08 02:38:23;;;;;;;3.80;3.20;;;14.90;99.90;;;15.10;nan;100869.97;4994649;28;20640;-67
2022/10/08 02:40:53;;;;;;;5.00;3.50;;;14.80;99.90;;;15.03;nan;100874.13;4995939;28;20614;-66
2022/10/08 02:43:25;;;;;;;4.20;2.40;;;14.80;99.90;;;15.16;nan;100872.06;5006822;28;20634;-66
2022/10/08 02:46:19;;;;;;;7.53;2.97;;;14.80;99.90;;;15.10;nan;100877.84;4975465;28;20618;-65
2022/10/08 02:49:15;;;;;;;4.17;3.30;;;14.80;99.90;;;15.17;nan;100879.00;4985334;28;20677;-65
2022/10/08 02:51:48;;;;;;;3.27;2.60;;;14.80;99.90;;;15.06;nan;100881.72;5006839;28;21201;-65
2022/10/08 02:54:20;;;;;;;4.60;3.07;;;14.80;99.90;;;14.89;nan;100873.63;4992360;28;20634;-65
2022/10/08 02:56:55;;;;;;;4.17;3.00;;;14.70;99.90;;;14.61;nan;100875.13;4994008;28;20616;-66
2022/10/08 02:59:24;;;;;;;3.83;3.10;;;14.60;99.90;;;14.76;nan;100873.84;4993498;28;20633;-66
2022/10/08 03:02:02;;;;;;;3.80;3.37;;;14.50;99.90;;;14.82;nan;100878.59;5011447;28;20627;-65
2022/10/08 03:04:33;;;;;;;5.33;3.17;;;14.50;99.90;;;14.87;nan;100880.78;4994906;28;20617;-65
2022/10/08 03:07:00;;;;;;;7.23;3.77;;;14.50;99.90;;;14.85;nan;100883.56;4994269;28;20648;-68
2022/10/08 03:09:43;;;;;;;5.43;3.00;;;14.50;99.90;;;14.82;nan;100878.59;4993923;28;21302;-66
2022/10/08 03:12:10;;;;;;;9.23;3.50;;;14.50;99.90;;;14.76;nan;100884.34;5012130;28;20720;-65
2022/10/08 03:14:44;;;;;;;7.40;3.90;;;14.50;99.90;;;14.71;nan;100892.59;4993028;28;20629;-65
2022/10/08 03:17:16;;;;;;;8.13;3.70;;;14.50;99.90;;;14.72;nan;100888.19;5010235;28;20691;-66
2022/10/08 03:19:43;;;;;;;6.93;4.07;;;14.50;99.90;;;14.74;nan;100891.53;4992604;28;21220;-65
2022/10/08 03:22:10;;;;;;;3.67;3.13;;;14.50;99.90;;;14.79;nan;100886.72;5010255;28;20632;-65
2022/10/08 03:24:37;;;;;;;6.00;3.50;;;14.50;99.90;;;14.74;nan;100896.78;4983240;28;20640;-66
2022/10/08 03:27:04;;;;;;;5.20;3.90;;;14.50;99.90;;;14.70;nan;100903.25;5011081;28;21312;-66
2022/10/08 03:29:31;;;;;;;7.93;3.40;;;14.50;99.90;;;14.68;nan;100908.66;5033688;22;20692;-64
2022/10/08 03:31:58;;;;;;;4.77;3.20;;;14.50;99.90;;;14.66;nan;100912.34;5011103;28;21027;-64
2022/10/08 03:34:25;;;;;;;7.33;3.60;;;14.40;99.90;;;14.63;nan;100915.22;5012489;28;20617;-64
2022/10/08 03:36:52;;;;;;;3.77;3.47;;;14.40;99.90;;;14.55;nan;100922.94;5029984;28;20600;-64
2022/10/08 03:39:19;;;;;;;5.70;3.30;;;14.30;99.90;;;14.51;nan;100916.28;5017777;28;21008;-64
2022/10/08 03:41:46;;;;;;;4.03;3.63;;;14.30;99.90;;;14.46;nan;100919.28;5031049;28;20656;-64
2022/10/08 03:44:13;;;;;;;4.40;3.43;;;14.30;99.90;;;14.44;nan;100912.47;5031932;28;20682;-64
2022/10/08 03:46:40;;;;;;;3.80;3.20;;;14.20;99.90;;;14.41;nan;100918.00;5020501;28;21065;-64
2022/10/08 03:49:07;;;;;;;11.40;3.40;;;14.20;99.90;;;14.36;nan;100913.13;5013051;28;20662;-64
2022/10/08 03:51:34;;;;;;;7.60;4.20;;;14.10;99.90;;;14.30;nan;100908.41;5030097;28;20624;-64
2022/10/08 03:54:01;;;;;;;4.80;3.70;;;14.10;99.90;;;14.25;nan;100913.16;5025797;28;21009;-65
2022/10/08 03:56:28;;;;;;;3.50;3.30;;;14.00;99.90;;;14.23;nan;100920.31;5031055;28;20617;-65
2022/10/08 03:58:58;;;;;;;4.37;3.97;;;14.00;99.90;;;14.18;nan;100916.44;5006699;28;20699;-65
2022/10/08 04:01:27;;;;;;;5.97;3.87;;;14.00;99.90;;;14.12;nan;100922.19;5031145;28;20632;-65
2022/10/08 04:03:54;;;;;;;3.53;3.23;;;13.90;99.90;;;14.02;nan;100932.59;5010148;28;20697;-65
2022/10/08 04:06:21;;;;;;;12.90;4.10;;;13.90;99.90;;;14.06;nan;100923.50;5006500;28;20644;-65
2022/10/08 04:08:48;;;;;;;5.50;3.77;;;13.80;99.90;;;14.05;nan;100934.97;4997589;28;20669;-65
2022/10/08 04:11:17;;;;;;;3.57;3.17;;;13.80;99.90;;;14.02;nan;100933.41;5010645;28;20606;-64
2022/10/08 04:13:44;;;;;;;6.47;2.90;;;13.80;99.90;;;13.96;nan;100936.53;4992534;28;20641;-65
2022/10/08 04:16:14;;;;;;;4.83;3.30;;;13.80;99.90;;;13.90;nan;100942.28;5021311;28;20640;-64
2022/10/08 04:18:42;;;;;;;3.70;3.13;;;13.70;99.90;;;13.76;nan;100939.09;5027372;28;20668;-64
2022/10/08 04:21:13;;;;;;;5.30;3.40;;;13.70;99.90;;;13.94;nan;100933.22;5013149;28;20643;-65
2022/10/08 04:23:42;;;;;;;8.80;3.90;;;13.70;99.90;;;13.81;nan;100931.69;5012317;28;20609;-64
2022/10/08 04:26:12;;;;;;;7.00;3.50;;;13.70;99.90;;;13.86;nan;100932.97;4995059;28;20660;-65
2022/10/08 04:28:43;;;;;;;5.27;3.37;;;13.60;99.90;;;13.76;nan;100939.94;4992411;28;20680;-66
2022/10/08 04:31:16;;;;;;;4.33;3.77;;;13.60;99.90;;;13.80;nan;100940.50;4992608;28;20634;-65
2022/10/08 04:33:45;;;;;;;8.00;3.47;;;13.60;99.90;;;13.71;nan;100936.88;5025874;28;20633;-65
2022/10/08 04:36:15;;;;;;;3.90;3.40;;;13.60;99.90;;;13.71;nan;100936.88;5014915;28;20659;-65
2022/10/08 04:38:43;;;;;;;8.00;4.53;;;13.50;99.90;;;13.71;nan;100939.50;5013274;28;21269;-65
2022/10/08 04:41:14;;;;;;;5.70;3.20;;;13.50;99.90;;;13.72;nan;100937.66;5034821;28;20605;-65
2022/10/08 04:43:43;;;;;;;5.00;3.50;;;13.50;99.90;;;13.52;nan;100941.06;5016891;28;20629;-66
2022/10/08 04:46:14;;;;;;;4.40;3.20;;;13.50;99.90;;;13.50;nan;100946.41;5033210;28;20629;-66
2022/10/08 04:48:46;;;;;;;11.87;3.70;;;13.40;99.90;;;13.55;nan;100944.28;5022329;28;21041;-64
2022/10/08 04:51:14;;;;;;;8.13;4.13;;;13.40;99.90;;;13.53;nan;100951.41;5041620;28;20625;-64
2022/10/08 04:53:41;;;;;;;4.90;3.60;;;13.30;99.90;;;13.51;nan;100955.97;5010979;28;21054;-64
2022/10/08 04:56:11;;;;;;;6.23;4.13;;;13.30;99.90;;;13.53;nan;100959.28;5033705;28;20625;-65
2022/10/08 04:58:39;;;;;;;6.97;4.40;;;13.30;99.90;;;13.53;nan;100958.44;5024118;28;21028;-65
2022/10/08 05:01:10;;;;;;;5.07;3.80;;;13.30;99.90;;;13.56;nan;100953.81;4997794;28;20648;-65
2022/10/08 05:03:39;;;;;;;4.53;3.90;;;13.30;99.90;;;13.56;nan;100959.06;5010085;28;20636;-65
2022/10/08 05:06:07;;;;;;;4.87;3.97;;;13.30;99.90;;;13.52;nan;100956.78;5015509;28;20972;-63
2022/10/08 05:08:34;;;;;;;11.40;3.70;;;13.30;99.90;;;13.54;nan;100958.34;5015632;28;20663;-64
2022/10/08 05:11:01;;;;;;;6.83;3.20;;;13.30;99.90;;;13.59;nan;100947.47;5004169;28;20632;-65
2022/10/08 05:13:28;;;;;;;4.10;3.47;;;13.30;99.90;;;13.47;nan;100958.94;5014778;28;21041;-64
2022/10/08 05:15:55;;;;;;;4.77;3.60;;;13.30;99.90;;;13.44;nan;100965.25;5013765;28;20614;-63
2022/10/08 05:18:22;;;;;;;3.67;3.37;;;13.30;99.90;;;13.44;nan;100964.44;5021422;28;21203;-65
2022/10/08 05:20:49;;;;;;;5.47;3.77;;;13.20;99.90;;;13.42;nan;100964.53;5029459;28;20674;-64
2022/10/08 05:23:16;;;;;;;10.00;3.40;;;13.20;99.90;;;13.37;nan;100974.56;5029012;28;20636;-63
2022/10/08 05:25:43;;;;;;;3.87;3.47;;;13.20;99.90;;;13.35;nan;100971.22;5033228;28;20662;-65
2022/10/08 05:28:10;;;;;;;5.67;3.30;;;13.20;99.90;;;13.25;nan;100970.25;5013750;28;20977;-63
2022/10/08 05:30:37;;;;;;;4.53;3.90;;;13.10;99.90;;;13.32;nan;100974.06;5016519;28;20674;-64
2022/10/08 05:33:04;;;;;;;5.07;3.70;;;13.10;99.90;;;13.30;nan;100973.38;5025016;28;21085;-65
2022/10/08 05:35:30;;;;;;;5.80;3.70;;;13.10;99.90;;;13.27;nan;100976.22;5032177;28;20621;-64
2022/10/08 05:37:57;;;;;;;3.50;3.10;;;13.10;99.90;;;13.25;nan;100985.97;5026262;28;21221;-65
2022/10/08 05:40:24;;;;;;;6.97;3.93;;;13.00;99.90;;;13.24;nan;100979.91;4980716;28;20638;-64
2022/10/08 05:42:51;;;;;;;7.50;3.40;;;13.00;99.90;;;13.24;nan;100989.56;5012982;28;20613;-64
2022/10/08 05:45:18;;;;;;;8.23;3.77;;;13.00;99.90;;;13.28;nan;100993.63;5013781;28;21194;-65
2022/10/08 05:47:47;;;;;;;5.17;3.23;;;13.00;99.90;;;13.24;nan;100995.63;5016078;28;20644;-65
2022/10/08 05:50:14;;;;;;;6.23;3.53;;;13.00;99.90;;;13.30;nan;100996.94;5032615;28;20688;-64
2022/10/08 05:52:41;;;;;;;4.90;3.70;;;13.00;99.90;;;13.27;nan;100991.94;5016702;28;20647;-65
2022/10/08 05:55:08;;;;;;;5.30;4.20;;;13.00;99.90;;;13.29;nan;100992.66;5013425;28;20637;-64
2022/10/08 05:57:35;;;;;;;8.50;4.03;;;13.10;99.90;;;13.28;nan;100996.25;5032446;28;20625;-64
2022/10/08 06:00:03;;;;;;;4.43;3.23;;;13.10;99.90;;;13.35;nan;101002.69;5021719;28;21035;-63
2022/10/08 06:02:30;;;;;;;5.60;3.63;;;13.10;99.90;;;13.44;nan;101001.94;5023427;28;20632;-64
2022/10/08 06:04:57;;;;;;;7.00;3.80;;;13.10;99.90;;;13.41;nan;100999.56;5011979;28;20629;-64
2022/10/08 06:07:24;;;;;;;7.83;3.60;;;13.10;99.90;;;13.47;nan;101009.59;5012424;28;20613;-65
2022/10/08 06:09:51;;;;;;;6.90;3.73;;;13.20;99.90;;;13.53;nan;101010.88;5013255;28;20668;-64
2022/10/08 06:12:18;;;;;;;4.13;3.83;;;13.20;99.90;;;13.57;nan;101015.75;5024574;28;20699;-64
2022/10/08 06:14:45;;;;;;;6.33;3.90;;;13.30;99.90;;;13.67;nan;101021.13;5032514;28;20625;-64
2022/10/08 06:17:12;;;;;;;7.47;3.47;;;13.30;99.90;;;13.70;nan;101023.50;4997439;28;21012;-65
2022/10/08 06:19:39;;;;;;;4.03;3.63;;;13.30;99.90;;;13.81;nan;101024.34;5013568;28;20662;-66
2022/10/08 06:22:06;;;;;;;5.57;4.00;;;13.40;99.90;;;13.86;nan;101027.41;5028172;28;20629;-64
2022/10/08 06:24:33;;;;;;;9.80;3.87;;;13.50;99.90;;;13.95;nan;101026.69;5031517;28;21104;-64
2022/10/08 06:26:59;;;;;;;6.10;3.40;;;13.50;99.90;;;13.99;nan;101027.28;5033091;28;20613;-64
2022/10/08 06:29:26;;;;;;;7.53;3.00;;;13.60;99.90;;;14.03;nan;101031.34;5030283;28;20719;-65
2022/10/08 06:31:53;;;;;;;3.53;3.17;;;13.70;99.90;;;14.17;nan;101038.09;5027123;28;20694;-65
2022/10/08 06:34:20;;;;;;;3.07;2.80;;;13.70;99.90;;;14.34;nan;101042.84;5013541;28;20683;-66
2022/10/08 06:36:47;;;;;;;4.10;3.27;;;13.80;99.90;;;14.48;nan;101037.31;5031346;28;20627;-65
2022/10/08 06:39:16;;;;;;;7.50;3.13;;;13.90;99.90;;;14.70;nan;101043.31;5027517;28;21252;-65
2022/10/08 06:41:43;;;;;;;5.20;3.60;;;14.10;99.90;;;14.88;nan;101046.22;5014679;28;20644;-65
2022/10/08 06:44:13;;;;;;;5.00;3.80;;;14.20;99.90;;;15.08;nan;101049.78;5018240;28;20634;-64
2022/10/08 06:46:41;;;;;;;3.37;3.10;;;14.40;99.90;;;15.22;nan;101045.03;4995671;28;20609;-65
2022/10/08 06:49:09;;;;;;;5.00;3.93;;;14.50;99.90;;;15.45;nan;101046.56;5000106;28;21021;-65
2022/10/08 06:51:36;;;;;;;8.33;3.50;;;14.60;99.90;;;15.57;nan;101049.13;5024305;28;20629;-65
2022/10/08 06:54:04;;;;;;;7.57;3.83;;;14.80;99.90;;;15.71;nan;101056.66;5030927;28;20625;-64
2022/10/08 06:56:35;;;;;;;6.20;3.30;;;15.00;99.90;;;15.99;nan;101056.72;5012647;28;20617;-64
2022/10/08 06:59:04;;;;;;;6.37;3.60;;;15.10;99.90;;;16.60;nan;101064.47;4993402;28;21236;-66
2022/10/08 07:01:32;;;;;;;5.80;3.17;;;15.40;99.90;;;17.46;nan;101064.38;5011845;28;20638;-65
2022/10/08 07:04:01;;;;;;;3.53;2.70;;;16.00;99.90;;;18.48;nan;101072.88;4994111;28;21007;-64
2022/10/08 07:06:28;;;;;;;3.17;2.87;;;16.70;99.90;;;19.33;nan;101066.97;5013844;28;20636;-64
2022/10/08 07:08:58;;;;;;;4.33;3.00;;;17.50;99.90;;;20.22;nan;101067.44;5017626;28;20677;-64
2022/10/08 07:11:27;;;;;;;6.47;2.83;;;18.20;99.90;;;20.94;nan;101072.81;5025544;28;20675;-64
2022/10/08 07:13:55;;;;;;;3.17;2.83;;;18.90;99.90;;;20.95;nan;101076.31;4993406;28;21003;-63
2022/10/08 07:16:24;;;;;;;4.17;3.27;;;19.40;99.90;;;21.12;nan;101083.28;5011724;28;20668;-65
2022/10/08 07:18:54;;;;;;;3.30;3.10;;;19.70;99.90;;;22.20;nan;101080.81;5021476;28;20660;-65
2022/10/08 07:21:22;;;;;;;2.53;2.33;;;20.30;99.90;;;23.43;nan;101085.88;5008145;28;20630;-65
2022/10/08 07:23:50;;;;;;;4.50;2.80;;;21.20;99.90;;;24.50;nan;101092.22;4977178;28;20700;-65
2022/10/08 07:26:23;;;;;;;5.13;2.80;;;22.00;99.90;;;24.84;nan;101085.38;5011533;28;21212;-69
2022/10/08 07:29:00;;;;;;;6.70;2.63;;;22.60;99.90;;;25.87;nan;101092.53;5009810;28;21054;-68
2022/10/08 07:31:31;;;;;;;2.83;2.23;;;23.30;98.50;;;26.57;nan;101096.69;5013265;28;20629;-68
2022/10/08 07:34:00;;;;;;;6.73;2.80;;;24.00;96.40;;;26.73;nan;101099.81;5013365;28;20674;-68
2022/10/08 07:36:28;;;;;;;6.90;2.90;;;24.40;94.60;;;26.33;nan;101100.75;5012965;28;20631;-68
2022/10/08 07:39:02;;;;;;;5.10;2.57;;;24.40;93.40;;;25.86;nan;101098.88;5009298;28;21046;-71
2022/10/08 07:41:30;;;;;;;5.67;2.93;;;24.20;93.30;;;26.60;nan;101098.97;5013434;28;20628;-69
2022/10/08 07:44:00;;;;;;;5.63;3.30;;;24.40;92.70;;;27.90;nan;101102.63;5012941;28;20633;-70
2022/10/08 07:46:30;;;;;;;2.77;2.50;;;25.00;91.80;;;30.02;nan;101111.41;5013327;28;20999;-68
2022/10/08 07:49:00;;;;;;;3.07;2.80;;;26.30;90.00;;;31.89;nan;101111.53;5009558;28;20721;-68
2022/10/08 07:51:30;;;;;;;5.43;2.60;;;27.70;83.90;;;32.72;nan;101104.56;5012495;28;20635;-69
2022/10/08 07:53:59;;;;;;;2.63;2.43;;;28.70;77.40;;;30.93;nan;101097.72;4996070;28;20649;-67
2022/10/08 07:56:29;;;;;;;2.40;1.80;;;28.30;74.30;;;29.04;nan;101107.81;5027222;28;20976;-69
2022/10/08 07:58:58;;;;;;;3.60;2.23;;;27.40;74.10;;;27.18;nan;101097.38;5000523;28;21018;-68
2022/10/08 08:01:28;;;;;;;3.70;2.20;;;26.10;75.50;;;26.04;nan;101101.03;4993600;28;20647;-68
2022/10/08 08:04:01;;;;;;;2.30;2.03;;;25.00;78.40;;;25.41;nan;101099.41;5000198;28;20671;-68
2022/10/08 08:06:30;;;;;;;2.67;2.30;;;24.30;81.00;;;24.92;nan;101112.78;5005664;28;20678;-68
2022/10/08 08:09:00;;;;;;;2.93;2.50;;;23.70;82.80;;;24.09;nan;101101.78;5006837;28;20736;-68
2022/10/08 08:11:27;;;;;;;7.37;2.33;;;23.00;84.50;;;23.53;nan;101107.78;5014792;28;20632;-67
2022/10/08 08:13:54;;;;;;;3.23;2.37;;;22.50;87.80;;;23.16;nan;101108.59;5033853;28;20636;-68
2022/10/08 08:16:25;;;;;;;8.87;2.23;;;22.10;89.40;;;22.86;nan;101112.16;4997531;28;20636;-68
2022/10/08 08:18:58;;;;;;;6.00;2.20;;;21.80;90.50;;;23.86;nan;101125.88;5003870;28;20664;-70
2022/10/08 08:21:34;;;;;;;4.00;1.90;;;22.00;91.00;;;24.78;nan;101116.34;4996895;28;20637;-68
2022/10/08 08:24:12;;;;;;;2.53;2.23;;;22.40;90.00;;;24.61;nan;101121.06;5013405;28;20638;-68
2022/10/08 08:26:41;;;;;;;2.73;2.20;;;22.50;89.50;;;26.96;nan;101122.72;4996670;28;20699;-68
2022/10/08 08:29:18;;;;;;;6.30;2.13;;;23.50;87.90;;;30.71;nan;101126.22;5002736;28;20718;-69
2022/10/08 08:31:47;;;;;;;5.13;2.37;;;25.50;83.20;;;32.93;nan;101130.03;5032835;28;20636;-69
2022/10/08 08:34:21;;;;;;;6.40;2.20;;;27.20;78.30;;;34.69;nan;101131.66;5009260;28;20636;-64
2022/10/08 08:36:52;;;;;;;3.90;2.23;;;28.70;73.70;;;36.22;nan;101144.94;5016449;28;20629;-66
2022/10/08 08:39:27;;;;;;;2.97;1.73;;;30.20;68.80;;;38.04;nan;101146.53;5032556;28;20641;-66
2022/10/08 08:42:19;;;;;;;3.13;2.10;;;31.60;64.90;;;40.29;nan;101149.47;5017867;28;20629;-67
2022/10/08 08:44:52;;;;;;;2.03;1.83;;;33.20;60.10;;;41.73;nan;101147.34;4997444;28;21258;-66
2022/10/08 08:47:47;;;;;;;3.20;2.00;;;34.60;56.20;;;42.45;nan;101142.78;4996344;28;21052;-67
2022/10/08 08:50:35;;;;;;;1.90;1.70;;;35.60;52.90;;;42.45;nan;101148.28;5015232;28;20683;-65
2022/10/08 08:53:03;;;;;;;2.00;1.90;;;36.10;50.40;;;41.08;nan;101144.97;5014534;28;21178;-68
2022/10/08 08:55:40;;;;;;;1.93;1.83;;;35.80;49.50;;;40.71;nan;101137.63;4996555;28;20628;-67
2022/10/08 08:58:42;;;;;;;2.23;1.80;;;35.50;49.20;;;40.13;nan;101139.84;4997017;28;20637;-68
2022/10/08 09:01:08;;;;;;;1.63;1.53;;;35.30;48.90;;;37.92;nan;101140.59;5014203;28;20627;-67
2022/10/08 09:03:42;;;;;;;3.23;1.67;;;34.20;49.20;;;37.98;nan;101127.75;5024002;28;20637;-67
2022/10/08 09:06:15;;;;;;;3.37;1.90;;;33.70;50.00;;;40.06;nan;101133.94;5013015;28;20632;-69
2022/10/08 09:08:57;;;;;;;2.03;1.80;;;34.20;49.40;;;42.45;nan;101147.41;5024954;28;20660;-68
2022/10/08 09:11:24;;;;;;;2.03;1.60;;;35.50;48.60;;;44.42;nan;101149.25;5012010;28;20729;-67
2022/10/08 09:14:10;;;;;;;3.93;1.67;;;37.10;46.40;;;45.59;nan;101148.84;5024370;28;20629;-69
2022/10/08 09:16:38;;;;;;;1.73;1.57;;;38.20;45.40;;;45.44;nan;101146.63;5034263;28;20621;-69
2022/10/08 09:19:07;;;;;;;1.60;1.50;;;38.60;44.30;;;45.64;nan;101140.41;4996323;28;21252;-65
2022/10/08 09:21:34;;;;;;;1.60;1.50;;;39.00;43.50;;;43.83;nan;101141.69;5009840;28;20625;-67
2022/10/08 09:24:02;;;;;;;1.30;1.20;;;38.40;43.20;;;41.15;nan;101137.19;5019591;28;20633;-68
2022/10/08 09:26:35;;;;;;;2.20;1.40;;;37.20;43.30;;;37.66;nan;101130.03;5012903;28;20616;-68
2022/10/08 09:29:04;;;;;;;1.87;1.40;;;35.40;44.80;;;35.80;nan;101128.69;5008321;23;20692;-68
2022/10/08 09:31:44;;;;;;;1.67;1.20;;;33.70;46.10;;;35.99;nan;101137.25;5013907;28;20751;-68
2022/10/08 09:34:17;;;;;;;3.23;1.50;;;33.00;47.20;;;38.37;nan;101138.75;4994939;28;20633;-68
2022/10/08 09:36:49;;;;;;;2.60;1.40;;;33.30;47.00;;;39.90;nan;101137.94;5012854;28;21194;-68
2022/10/08 09:39:22;;;;;;;2.53;1.27;;;34.20;46.10;;;37.77;nan;101142.53;5005968;28;20662;-70
2022/10/08 09:42:16;;;;;;;1.53;1.10;;;33.80;46.20;;;41.22;nan;101151.28;4992798;28;20630;-69
2022/10/08 09:44:49;;;;;;;1.77;1.00;;;34.80;45.70;;;43.28;nan;101157.75;4971835;28;20614;-70
2022/10/08 09:47:19;;;;;;;1.27;1.17;;;36.20;44.70;;;42.75;nan;101157.69;4992380;28;20665;-66
2022/10/08 09:50:17;;;;;;;1.80;1.40;;;36.70;44.10;;;42.85;nan;101159.41;4990149;28;20686;-68
2022/10/08 09:52:47;;;;;;;1.87;1.10;;;37.00;43.80;;;44.69;nan;101164.59;4975446;28;20634;-65
2022/10/08 09:55:14;;;;;;;1.30;1.20;;;37.90;43.00;;;44.19;nan;101167.00;4974693;28;20634;-66
2022/10/08 09:57:45;;;;;;;1.00;1.00;;;38.20;42.60;;;44.54;nan;101162.34;4993705;28;20625;-67
2022/10/08 10:00:25;;;;;;;3.93;1.30;;;38.50;42.40;;;45.02;nan;101162.16;4975911;28;20680;-66
2022/10/08 10:02:54;;;;;;;1.10;1.10;;;38.60;42.10;;;44.44;nan;101169.00;4991887;28;21025;-68
2022/10/08 10:05:32;;;;;;;2.20;1.10;;;38.60;42.10;;;45.53;nan;101164.75;4972713;28;20653;-66
2022/10/08 10:07:59;;;;;;;1.03;1.03;;;38.90;42.00;;;45.26;nan;101165.97;4974806;28;20631;-64
2022/10/08 10:10:39;;;;;;;1.80;1.20;;;39.20;41.50;;;41.67;nan;101164.19;4991898;28;20740;-68
2022/10/08 10:13:32;;;;;;;1.10;1.10;;;38.40;41.90;;;37.41;nan;101157.31;4971026;28;20624;-67
2022/10/08 10:16:14;;;;;;;1.50;1.17;;;35.90;43.20;;;34.68;nan;101157.94;4992769;28;20617;-67
2022/10/08 10:19:02;;;;;;;1.20;1.10;;;33.40;45.60;;;32.58;nan;101151.03;4989293;28;20676;-67
2022/10/08 10:21:53;;;;;;;2.63;1.00;;;31.60;47.80;;;30.52;nan;101145.13;4971934;28;20961;-64
2022/10/08 10:24:55;;;;;;;2.00;1.30;;;30.10;49.80;;;29.20;nan;101154.00;4988550;28;20640;-64
2022/10/08 10:27:27;;;;;;;1.30;1.20;;;28.60;52.00;;;27.31;nan;101141.06;5001069;28;20998;-64
2022/10/08 10:30:05;;;;;;;1.57;1.23;;;27.10;54.00;;;26.35;nan;101140.66;4974779;28;20681;-64
2022/10/08 10:32:39;;;;;;;1.30;0.77;;;25.90;56.20;;;27.02;nan;101140.66;4992585;28;20629;-64
2022/10/08 10:35:18;;;;;;;2.10;1.40;;;25.60;56.80;;;26.49;nan;101142.38;4974398;28;21225;-65
2022/10/08 10:37:58;;;;;;;2.23;1.33;;;25.30;57.70;;;25.64;nan;101147.28;4975737;28;20627;-64
2022/10/08 10:40:40;;;;;;;2.30;1.30;;;24.90;59.10;;;24.92;nan;101149.31;4975502;28;20643;-69
2022/10/08 10:43:48;;;;;;;1.23;1.00;;;24.10;60.50;;;24.84;nan;101150.28;4990978;28;20627;-70
2022/10/08 10:46:24;;;;;;;1.67;0.97;;;23.80;61.70;;;24.70;nan;101148.47;4986677;28;21195;-65
2022/10/08 10:48:51;;;;;;;3.27;1.10;;;23.60;62.40;;;24.46;nan;101148.81;4981681;28;20637;-64
2022/10/08 10:51:49;;;;;;;1.30;1.20;;;23.40;63.00;;;23.90;nan;101160.97;4970062;28;21234;-65